Condicions actuals
Partly Cloudy
Conditions



Pressió:
1011.92 (hPa) - 29.88 (inHG)
Visibilitat:

10.0 (km) - 6.2 (miles)
Base de Núvols

1219 (Mts) - 4000 (Feets)
   Temperatura
19  °C
Temperatura
9  °C
P.ros.
52  %
 Humitat
   Velocitat del Vent
26  km/h
14  kts
16  mph
7.2  m/s
   Vent Direcció
N
45°
E
90°
135°
S
180°
225°
O
270°
315°
 200°

Oest N
Oest
   Airport Data
LEBL
Barcelona International Airport
Metar :LEBL 131200Z 20014KT 9999 FEW040 19/09 Q1012 NOSIG
Thu 13th May 14:00 pm
   Raw Metar Info
Raw METAR is the most common format in the world for the transmission of observational weather data. It is highly standardized through the International Civil Aviation Organization (ICAO), which allows it to be understood throughout most of the world.
   API Info
Data Provided by
https://www.checkwx.com/weather/LEBL

Aviation Weather providing METAR, TAF, AIRMET, SIGMET and OUTLOOK Weather Reports
   © Info
CSS/SVG/PHP scripts were developed by weather34.com for use in the weather34 template © 2015-2021

Guide Info provided by Metar-Wikipedia